sensor_id;sensor_type;location;lat;lon;timestamp;P1;durP1;ratioP1;P2;durP2;ratioP2
38557;SDS011;24333;42.626;23.308;2022-12-07T00:52:21;65.63;;;22.73;;
38557;SDS011;24333;42.626;23.308;2022-12-07T00:54:47;55.85;;;20.77;;
38557;SDS011;24333;42.626;23.308;2022-12-07T00:57:13;58.20;;;20.17;;
38557;SDS011;24333;42.626;23.308;2022-12-07T00:59:48;50.40;;;19.05;;
38557;SDS011;24333;42.626;23.308;2022-12-07T01:02:14;51.83;;;18.95;;
38557;SDS011;24333;42.626;23.308;2022-12-07T01:17:43;56.50;;;19.65;;
38557;SDS011;24333;42.626;23.308;2022-12-07T01:41:39;47.08;;;18.30;;
38557;SDS011;24333;42.626;23.308;2022-12-07T01:46:45;61.83;;;20.05;;
38557;SDS011;24333;42.626;23.308;2022-12-07T01:52:53;59.83;;;19.30;;
38557;SDS011;24333;42.626;23.308;2022-12-07T01:56:17;51.35;;;18.23;;
38557;SDS011;24333;42.626;23.308;2022-12-07T01:58:46;56.90;;;18.95;;
38557;SDS011;24333;42.626;23.308;2022-12-07T02:01:13;61.65;;;18.80;;
38557;SDS011;24333;42.626;23.308;2022-12-07T02:03:39;51.05;;;18.17;;
38557;SDS011;24333;42.626;23.308;2022-12-07T02:06:07;51.08;;;16.90;;
38557;SDS011;24333;42.626;23.308;2022-12-07T02:08:34;47.60;;;17.13;;
38557;SDS011;24333;42.626;23.308;2022-12-07T02:11:00;56.03;;;19.35;;
38557;SDS011;24333;42.626;23.308;2022-12-07T02:13:29;53.92;;;19.02;;
38557;SDS011;24333;42.626;23.308;2022-12-07T02:16:16;52.83;;;18.27;;
38557;SDS011;24333;42.626;23.308;2022-12-07T02:19:14;56.92;;;15.85;;
38557;SDS011;24333;42.626;23.308;2022-12-07T02:21:50;59.08;;;18.33;;
38557;SDS011;24333;42.626;23.308;2022-12-07T02:30:08;49.50;;;16.83;;
38557;SDS011;24333;42.626;23.308;2022-12-07T02:32:42;51.50;;;16.48;;
38557;SDS011;24333;42.626;23.308;2022-12-07T02:41:12;50.17;;;15.80;;
38557;SDS011;24333;42.626;23.308;2022-12-07T02:43:42;44.33;;;14.93;;
38557;SDS011;24333;42.626;23.308;2022-12-07T02:46:12;52.65;;;16.67;;
38557;SDS011;24333;42.626;23.308;2022-12-07T02:48:43;49.20;;;15.68;;
38557;SDS011;24333;42.626;23.308;2022-12-07T02:51:11;51.95;;;16.80;;
38557;SDS011;24333;42.626;23.308;2022-12-07T02:53:38;60.13;;;18.00;;
38557;SDS011;24333;42.626;23.308;2022-12-07T03:11:44;37.88;;;12.55;;
38557;SDS011;24333;42.626;23.308;2022-12-07T03:14:13;37.28;;;12.02;;
38557;SDS011;24333;42.626;23.308;2022-12-07T03:16:46;35.63;;;11.85;;
38557;SDS011;24333;42.626;23.308;2022-12-07T03:19:19;22.25;;;8.40;;
38557;SDS011;24333;42.626;23.308;2022-12-07T03:21:49;28.15;;;8.80;;
38557;SDS011;24333;42.626;23.308;2022-12-07T03:24:26;22.65;;;8.40;;
38557;SDS011;24333;42.626;23.308;2022-12-07T03:26:56;27.02;;;8.73;;
38557;SDS011;24333;42.626;23.308;2022-12-07T03:29:31;26.38;;;7.63;;
38557;SDS011;24333;42.626;23.308;2022-12-07T03:32:12;22.77;;;7.95;;
38557;SDS011;24333;42.626;23.308;2022-12-07T03:37:39;20.45;;;6.28;;
38557;SDS011;24333;42.626;23.308;2022-12-07T03:40:15;16.70;;;6.05;;
38557;SDS011;24333;42.626;23.308;2022-12-07T03:42:47;18.97;;;7.10;;
38557;SDS011;24333;42.626;23.308;2022-12-07T03:45:14;27.58;;;8.38;;
38557;SDS011;24333;42.626;23.308;2022-12-07T03:50:31;24.73;;;8.00;;
38557;SDS011;24333;42.626;23.308;2022-12-07T03:53:15;15.25;;;6.68;;
38557;SDS011;24333;42.626;23.308;2022-12-07T04:34:56;27.80;;;9.80;;
38557;SDS011;24333;42.626;23.308;2022-12-07T04:37:22;32.97;;;9.25;;
38557;SDS011;24333;42.626;23.308;2022-12-07T04:46:22;22.08;;;8.35;;
38557;SDS011;24333;42.626;23.308;2022-12-07T04:48:49;19.20;;;7.22;;
38557;SDS011;24333;42.626;23.308;2022-12-07T04:51:18;23.63;;;7.47;;
38557;SDS011;24333;42.626;23.308;2022-12-07T04:53:46;21.98;;;6.75;;
38557;SDS011;24333;42.626;23.308;2022-12-07T04:56:12;19.00;;;6.78;;
38557;SDS011;24333;42.626;23.308;2022-12-07T05:01:15;16.05;;;5.45;;
38557;SDS011;24333;42.626;23.308;2022-12-07T05:03:41;17.13;;;6.20;;
38557;SDS011;24333;42.626;23.308;2022-12-07T05:06:07;24.75;;;6.60;;
38557;SDS011;24333;42.626;23.308;2022-12-07T06:01:15;60.08;;;19.35;;
38557;SDS011;24333;42.626;23.308;2022-12-07T06:03:40;61.05;;;20.95;;
38557;SDS011;24333;42.626;23.308;2022-12-07T06:06:05;65.35;;;20.10;;
38557;SDS011;24333;42.626;23.308;2022-12-07T06:08:31;68.55;;;20.42;;
38557;SDS011;24333;42.626;23.308;2022-12-07T06:10:57;52.80;;;18.85;;
38557;SDS011;24333;42.626;23.308;2022-12-07T06:20:15;62.33;;;21.02;;
38557;SDS011;24333;42.626;23.308;2022-12-07T06:22:41;65.30;;;21.40;;
38557;SDS011;24333;42.626;23.308;2022-12-07T06:25:07;60.75;;;22.48;;
38557;SDS011;24333;42.626;23.308;2022-12-07T06:31:01;63.50;;;21.20;;
38557;SDS011;24333;42.626;23.308;2022-12-07T07:15:44;80.32;;;19.33;;
38557;SDS011;24333;42.626;23.308;2022-12-07T07:24:33;81.65;;;17.52;;
38557;SDS011;24333;42.626;23.308;2022-12-07T07:26:58;73.47;;;17.42;;
38557;SDS011;24333;42.626;23.308;2022-12-07T07:29:23;97.72;;;19.08;;
38557;SDS011;24333;42.626;23.308;2022-12-07T19:20:13;50.78;;;17.67;;
38557;SDS011;24333;42.626;23.308;2022-12-07T19:25:33;50.63;;;15.40;;
38557;SDS011;24333;42.626;23.308;2022-12-07T19:28:09;45.75;;;18.55;;
38557;SDS011;24333;42.626;23.308;2022-12-07T19:30:39;39.95;;;15.98;;
38557;SDS011;24333;42.626;23.308;2022-12-07T19:33:05;35.60;;;13.45;;
38557;SDS011;24333;42.626;23.308;2022-12-07T19:35:31;34.10;;;13.73;;
38557;SDS011;24333;42.626;23.308;2022-12-07T19:38:00;67.32;;;31.50;;
38557;SDS011;24333;42.626;23.308;2022-12-07T19:40:30;36.05;;;15.40;;
38557;SDS011;24333;42.626;23.308;2022-12-07T19:42:56;20.02;;;7.97;;
38557;SDS011;24333;42.626;23.308;2022-12-07T19:45:24;25.73;;;9.02;;
38557;SDS011;24333;42.626;23.308;2022-12-07T19:48:11;23.13;;;8.15;;
38557;SDS011;24333;42.626;23.308;2022-12-07T20:39:50;20.52;;;8.35;;
38557;SDS011;24333;42.626;23.308;2022-12-07T20:42:25;23.77;;;9.43;;
38557;SDS011;24333;42.626;23.308;2022-12-07T20:45:03;33.95;;;13.20;;
38557;SDS011;24333;42.626;23.308;2022-12-07T20:47:33;41.08;;;14.40;;
38557;SDS011;24333;42.626;23.308;2022-12-07T20:50:23;49.85;;;17.15;;
38557;SDS011;24333;42.626;23.308;2022-12-07T20:52:54;44.97;;;14.23;;
38557;SDS011;24333;42.626;23.308;2022-12-07T20:55:23;27.63;;;10.30;;
38557;SDS011;24333;42.626;23.308;2022-12-07T20:57:53;25.40;;;9.75;;
38557;SDS011;24333;42.626;23.308;2022-12-07T21:01:05;32.53;;;12.25;;
38557;SDS011;24333;42.626;23.308;2022-12-07T21:03:35;34.00;;;12.27;;
38557;SDS011;24333;42.626;23.308;2022-12-07T21:06:01;57.47;;;17.02;;
38557;SDS011;24333;42.626;23.308;2022-12-07T21:08:29;50.05;;;16.00;;
38557;SDS011;24333;42.626;23.308;2022-12-07T21:10:57;49.78;;;15.90;;
38557;SDS011;24333;42.626;23.308;2022-12-07T21:13:32;53.50;;;17.75;;
38557;SDS011;24333;42.626;23.308;2022-12-07T21:16:05;54.40;;;16.77;;
38557;SDS011;24333;42.626;23.308;2022-12-07T21:18:43;44.95;;;15.20;;
38557;SDS011;24333;42.626;23.308;2022-12-07T21:21:12;39.35;;;13.50;;
38557;SDS011;24333;42.626;23.308;2022-12-07T21:23:46;47.58;;;16.02;;
38557;SDS011;24333;42.626;23.308;2022-12-07T21:27:02;34.58;;;12.07;;
38557;SDS011;24333;42.626;23.308;2022-12-07T21:33:09;29.73;;;11.65;;
38557;SDS011;24333;42.626;23.308;2022-12-07T21:46:41;29.00;;;8.23;;
38557;SDS011;24333;42.626;23.308;2022-12-07T23:02:37;15.57;;;5.85;;
38557;SDS011;24333;42.626;23.308;2022-12-07T23:05:03;16.25;;;4.93;;
